Terminal Aerodrome Forecast
Issued by NWS

Home | Current Version | Previous Version | Text Only | Print | Product List | Glossary On
Versions: 1 2 3 4 5 6 7 8 9 10 11 12 13 14 15 16 17 18
000
FTUS44 KTSA 190500
TAFMLC
TAF
KMLC 190520Z 1906/2006 12004KT P6SM VCTS BKN050CB
      TEMPO 1906/1908 VRB15G25KT 3SM -TSRA BR BKN025CB
     FM190900 17006KT 4SM BR BKN025
     FM191700 22006KT P6SM BKN050 PROB30 1918/1924 3SM -TSRA BR
      BKN030CB
     FM200000 33015KT P6SM BKN050=

USA.gov is the U.S. government's official web portal to all federal, state and local government web resources and services.